sensor_id;sensor_type;location;lat;lon;timestamp;P1;durP1;ratioP1;P2;durP2;ratioP2
77955;SDS011;67152;36.266;32.294;2023-10-13T00:03:49;5.97;;;3.40;;
77955;SDS011;67152;36.266;32.294;2023-10-13T00:06:35;8.05;;;3.40;;
77955;SDS011;67152;36.266;32.294;2023-10-13T00:09:22;20.38;;;4.70;;
77955;SDS011;67152;36.266;32.294;2023-10-13T00:11:55;16.58;;;4.70;;
77955;SDS011;67152;36.266;32.294;2023-10-13T00:14:22;6.70;;;4.10;;
77955;SDS011;67152;36.266;32.294;2023-10-13T00:16:48;9.55;;;4.18;;
77955;SDS011;67152;36.266;32.294;2023-10-13T00:19:29;8.18;;;4.18;;
77955;SDS011;67152;36.266;32.294;2023-10-13T00:22:13;10.05;;;3.95;;
77955;SDS011;67152;36.266;32.294;2023-10-13T00:24:42;14.20;;;3.90;;
77955;SDS011;67152;36.266;32.294;2023-10-13T00:27:17;8.25;;;4.13;;
77955;SDS011;67152;36.266;32.294;2023-10-13T00:30:00;7.20;;;4.07;;
77955;SDS011;67152;36.266;32.294;2023-10-13T00:32:59;16.95;;;4.50;;
77955;SDS011;67152;36.266;32.294;2023-10-13T00:35:26;14.55;;;4.53;;
77955;SDS011;67152;36.266;32.294;2023-10-13T00:38:03;8.80;;;3.92;;
77955;SDS011;67152;36.266;32.294;2023-10-13T00:40:31;14.27;;;4.20;;
77955;SDS011;67152;36.266;32.294;2023-10-13T00:42:58;9.43;;;4.00;;
77955;SDS011;67152;36.266;32.294;2023-10-13T00:45:57;7.95;;;3.90;;
77955;SDS011;67152;36.266;32.294;2023-10-13T00:48:37;9.23;;;4.05;;
77955;SDS011;67152;36.266;32.294;2023-10-13T00:51:20;11.13;;;4.00;;
77955;SDS011;67152;36.266;32.294;2023-10-13T00:54:07;9.48;;;4.20;;
77955;SDS011;67152;36.266;32.294;2023-10-13T00:56:40;10.15;;;4.82;;
77955;SDS011;67152;36.266;32.294;2023-10-13T00:59:23;34.75;;;6.78;;
77955;SDS011;67152;36.266;32.294;2023-10-13T01:01:51;27.55;;;7.85;;
77955;SDS011;67152;36.266;32.294;2023-10-13T01:04:21;31.45;;;6.47;;
77955;SDS011;67152;36.266;32.294;2023-10-13T01:06:54;30.45;;;8.07;;
77955;SDS011;67152;36.266;32.294;2023-10-13T01:09:20;28.05;;;6.82;;
77955;SDS011;67152;36.266;32.294;2023-10-13T01:11:50;12.70;;;5.28;;
77955;SDS011;67152;36.266;32.294;2023-10-13T01:14:26;11.73;;;4.80;;
77955;SDS011;67152;36.266;32.294;2023-10-13T01:16:54;10.45;;;4.05;;
77955;SDS011;67152;36.266;32.294;2023-10-13T01:19:24;8.57;;;3.88;;
77955;SDS011;67152;36.266;32.294;2023-10-13T01:21:51;9.23;;;4.30;;
77955;SDS011;67152;36.266;32.294;2023-10-13T01:24:28;13.00;;;4.28;;
77955;SDS011;67152;36.266;32.294;2023-10-13T01:26:57;8.32;;;4.20;;
77955;SDS011;67152;36.266;32.294;2023-10-13T01:29:33;12.57;;;4.75;;
77955;SDS011;67152;36.266;32.294;2023-10-13T01:31:59;7.78;;;4.75;;
77955;SDS011;67152;36.266;32.294;2023-10-13T01:34:26;24.25;;;4.78;;
77955;SDS011;67152;36.266;32.294;2023-10-13T01:36:53;14.95;;;4.72;;
77955;SDS011;67152;36.266;32.294;2023-10-13T01:39:21;18.38;;;4.70;;
77955;SDS011;67152;36.266;32.294;2023-10-13T01:41:54;11.07;;;4.55;;
77955;SDS011;67152;36.266;32.294;2023-10-13T01:44:22;14.07;;;5.20;;
77955;SDS011;67152;36.266;32.294;2023-10-13T01:46:49;9.13;;;4.45;;
77955;SDS011;67152;36.266;32.294;2023-10-13T01:49:16;10.57;;;4.03;;
77955;SDS011;67152;36.266;32.294;2023-10-13T01:51:44;5.68;;;3.75;;
77955;SDS011;67152;36.266;32.294;2023-10-13T01:54:13;10.52;;;4.15;;
77955;SDS011;67152;36.266;32.294;2023-10-13T01:56:41;9.48;;;4.03;;
77955;SDS011;67152;36.266;32.294;2023-10-13T01:59:11;8.82;;;4.45;;
77955;SDS011;67152;36.266;32.294;2023-10-13T02:01:38;10.10;;;4.93;;
77955;SDS011;67152;36.266;32.294;2023-10-13T02:04:05;7.20;;;4.40;;
77955;SDS011;67152;36.266;32.294;2023-10-13T02:06:35;7.75;;;4.35;;
77955;SDS011;67152;36.266;32.294;2023-10-13T02:09:06;8.43;;;4.22;;
77955;SDS011;67152;36.266;32.294;2023-10-13T02:11:39;14.38;;;4.25;;
77955;SDS011;67152;36.266;32.294;2023-10-13T02:14:07;12.05;;;4.68;;
77955;SDS011;67152;36.266;32.294;2023-10-13T02:16:37;14.57;;;4.70;;
77955;SDS011;67152;36.266;32.294;2023-10-13T02:19:07;10.52;;;4.60;;
77955;SDS011;67152;36.266;32.294;2023-10-13T02:21:34;6.95;;;4.15;;
77955;SDS011;67152;36.266;32.294;2023-10-13T02:24:09;8.80;;;4.43;;
77955;SDS011;67152;36.266;32.294;2023-10-13T02:26:42;6.88;;;4.07;;
77955;SDS011;67152;36.266;32.294;2023-10-13T02:29:08;9.82;;;4.25;;
77955;SDS011;67152;36.266;32.294;2023-10-13T02:31:44;12.65;;;5.43;;
77955;SDS011;67152;36.266;32.294;2023-10-13T02:34:20;8.32;;;4.20;;
77955;SDS011;67152;36.266;32.294;2023-10-13T02:36:50;11.85;;;4.68;;
77955;SDS011;67152;36.266;32.294;2023-10-13T02:39:19;9.75;;;4.18;;
77955;SDS011;67152;36.266;32.294;2023-10-13T02:41:53;13.57;;;4.90;;
77955;SDS011;67152;36.266;32.294;2023-10-13T02:44:21;12.93;;;5.70;;
77955;SDS011;67152;36.266;32.294;2023-10-13T02:46:56;11.00;;;4.50;;
77955;SDS011;67152;36.266;32.294;2023-10-13T02:49:24;15.88;;;4.38;;
77955;SDS011;67152;36.266;32.294;2023-10-13T02:51:59;11.27;;;4.85;;
77955;SDS011;67152;36.266;32.294;2023-10-13T02:54:31;10.35;;;4.65;;
77955;SDS011;67152;36.266;32.294;2023-10-13T02:57:03;10.15;;;4.72;;
77955;SDS011;67152;36.266;32.294;2023-10-13T03:02:01;9.23;;;4.30;;
77955;SDS011;67152;36.266;32.294;2023-10-13T03:04:33;16.88;;;5.57;;
77955;SDS011;67152;36.266;32.294;2023-10-13T03:06:59;6.30;;;3.55;;
77955;SDS011;67152;36.266;32.294;2023-10-13T03:09:28;11.10;;;4.55;;
77955;SDS011;67152;36.266;32.294;2023-10-13T03:11:55;9.43;;;3.87;;
77955;SDS011;67152;36.266;32.294;2023-10-13T03:14:22;8.52;;;4.07;;
77955;SDS011;67152;36.266;32.294;2023-10-13T03:16:58;9.32;;;4.00;;
77955;SDS011;67152;36.266;32.294;2023-10-13T03:19:31;10.15;;;3.92;;
77955;SDS011;67152;36.266;32.294;2023-10-13T03:22:04;13.82;;;4.35;;
77955;SDS011;67152;36.266;32.294;2023-10-13T03:24:40;11.27;;;4.50;;
77955;SDS011;67152;36.266;32.294;2023-10-13T03:27:19;11.88;;;4.47;;
77955;SDS011;67152;36.266;32.294;2023-10-13T03:29:50;18.92;;;4.40;;
77955;SDS011;67152;36.266;32.294;2023-10-13T03:32:26;10.70;;;4.03;;
77955;SDS011;67152;36.266;32.294;2023-10-13T03:34:56;13.43;;;4.18;;
77955;SDS011;67152;36.266;32.294;2023-10-13T03:37:25;10.85;;;4.20;;
77955;SDS011;67152;36.266;32.294;2023-10-13T03:48:06;13.27;;;4.47;;
77955;SDS011;67152;36.266;32.294;2023-10-13T03:50:38;10.50;;;4.15;;
77955;SDS011;67152;36.266;32.294;2023-10-13T03:53:23;14.18;;;4.30;;
77955;SDS011;67152;36.266;32.294;2023-10-13T03:55:51;8.82;;;4.18;;
77955;SDS011;67152;36.266;32.294;2023-10-13T03:58:36;9.20;;;4.25;;
77955;SDS011;67152;36.266;32.294;2023-10-13T04:01:18;8.80;;;3.97;;
77955;SDS011;67152;36.266;32.294;2023-10-13T04:03:58;10.20;;;4.22;;
77955;SDS011;67152;36.266;32.294;2023-10-13T04:06:43;13.48;;;4.80;;
77955;SDS011;67152;36.266;32.294;2023-10-13T04:09:13;9.95;;;3.70;;
77955;SDS011;67152;36.266;32.294;2023-10-13T04:12:04;11.43;;;4.68;;
77955;SDS011;67152;36.266;32.294;2023-10-13T04:14:36;10.80;;;4.45;;
77955;SDS011;67152;36.266;32.294;2023-10-13T04:17:22;11.93;;;4.22;;
77955;SDS011;67152;36.266;32.294;2023-10-13T04:19:50;11.80;;;3.70;;
77955;SDS011;67152;36.266;32.294;2023-10-13T04:22:34;7.30;;;4.10;;
77955;SDS011;67152;36.266;32.294;2023-10-13T04:25:22;13.38;;;4.07;;
77955;SDS011;67152;36.266;32.294;2023-10-13T04:27:55;13.80;;;4.15;;
77955;SDS011;67152;36.266;32.294;2023-10-13T04:30:44;11.00;;;4.65;;
77955;SDS011;67152;36.266;32.294;2023-10-13T04:33:25;10.80;;;3.97;;
77955;SDS011;67152;36.266;32.294;2023-10-13T04:36:10;9.82;;;4.80;;
77955;SDS011;67152;36.266;32.294;2023-10-13T04:38:53;9.05;;;4.40;;
77955;SDS011;67152;36.266;32.294;2023-10-13T04:41:23;29.45;;;5.07;;
77955;SDS011;67152;36.266;32.294;2023-10-13T04:43:50;16.67;;;4.47;;
77955;SDS011;67152;36.266;32.294;2023-10-13T04:46:30;16.10;;;4.90;;
77955;SDS011;67152;36.266;32.294;2023-10-13T04:49:12;16.38;;;4.85;;
77955;SDS011;67152;36.266;32.294;2023-10-13T04:51:58;10.13;;;4.05;;
77955;SDS011;67152;36.266;32.294;2023-10-13T04:54:27;11.32;;;4.30;;
77955;SDS011;67152;36.266;32.294;2023-10-13T04:57:21;12.73;;;4.28;;
77955;SDS011;67152;36.266;32.294;2023-10-13T04:59:52;9.57;;;3.97;;
77955;SDS011;67152;36.266;32.294;2023-10-13T05:02:42;12.05;;;3.42;;
77955;SDS011;67152;36.266;32.294;2023-10-13T05:05:28;17.35;;;3.40;;
77955;SDS011;67152;36.266;32.294;2023-10-13T05:08:36;10.50;;;3.10;;
77955;SDS011;67152;36.266;32.294;2023-10-13T05:11:21;7.15;;;2.90;;
77955;SDS011;67152;36.266;32.294;2023-10-13T05:14:06;6.15;;;3.40;;
77955;SDS011;67152;36.266;32.294;2023-10-13T05:16:51;17.25;;;4.32;;
77955;SDS011;67152;36.266;32.294;2023-10-13T05:19:36;12.55;;;3.78;;
77955;SDS011;67152;36.266;32.294;2023-10-13T05:22:21;10.82;;;3.63;;
77955;SDS011;67152;36.266;32.294;2023-10-13T05:25:06;13.90;;;3.72;;
77955;SDS011;67152;36.266;32.294;2023-10-13T05:27:51;27.52;;;4.93;;
77955;SDS011;67152;36.266;32.294;2023-10-13T05:30:54;19.65;;;4.22;;
77955;SDS011;67152;36.266;32.294;2023-10-13T05:33:43;17.83;;;4.38;;
77955;SDS011;67152;36.266;32.294;2023-10-13T05:36:28;14.15;;;4.80;;
77955;SDS011;67152;36.266;32.294;2023-10-13T05:39:13;19.95;;;5.03;;
77955;SDS011;67152;36.266;32.294;2023-10-13T05:41:58;28.35;;;6.32;;
77955;SDS011;67152;36.266;32.294;2023-10-13T05:44:43;29.80;;;5.68;;
77955;SDS011;67152;36.266;32.294;2023-10-13T05:47:33;29.15;;;6.10;;
77955;SDS011;67152;36.266;32.294;2023-10-13T05:50:09;20.55;;;6.03;;
77955;SDS011;67152;36.266;32.294;2023-10-13T05:52:45;24.85;;;5.55;;
77955;SDS011;67152;36.266;32.294;2023-10-13T05:55:22;14.40;;;4.70;;
77955;SDS011;67152;36.266;32.294;2023-10-13T05:58:10;16.70;;;4.75;;
77955;SDS011;67152;36.266;32.294;2023-10-13T06:00:55;30.92;;;5.03;;
77955;SDS011;67152;36.266;32.294;2023-10-13T06:03:40;27.95;;;5.10;;
77955;SDS011;67152;36.266;32.294;2023-10-13T06:06:24;22.17;;;5.53;;
77955;SDS011;67152;36.266;32.294;2023-10-13T06:09:09;16.15;;;5.13;;
77955;SDS011;67152;36.266;32.294;2023-10-13T06:11:54;23.80;;;6.15;;
77955;SDS011;67152;36.266;32.294;2023-10-13T06:14:39;22.48;;;5.72;;
77955;SDS011;67152;36.266;32.294;2023-10-13T06:17:24;15.03;;;4.80;;
77955;SDS011;67152;36.266;32.294;2023-10-13T06:20:09;30.10;;;5.00;;
77955;SDS011;67152;36.266;32.294;2023-10-13T06:22:54;29.60;;;5.68;;
77955;SDS011;67152;36.266;32.294;2023-10-13T06:25:39;18.02;;;5.20;;
77955;SDS011;67152;36.266;32.294;2023-10-13T06:28:24;21.48;;;5.22;;
77955;SDS011;67152;36.266;32.294;2023-10-13T06:31:11;19.38;;;5.13;;
77955;SDS011;67152;36.266;32.294;2023-10-13T06:33:48;21.10;;;6.20;;
77955;SDS011;67152;36.266;32.294;2023-10-13T06:36:14;17.58;;;5.45;;
77955;SDS011;67152;36.266;32.294;2023-10-13T06:38:43;24.45;;;5.25;;
77955;SDS011;67152;36.266;32.294;2023-10-13T06:41:10;17.50;;;5.07;;
77955;SDS011;67152;36.266;32.294;2023-10-13T06:43:45;15.37;;;4.53;;
77955;SDS011;67152;36.266;32.294;2023-10-13T06:46:25;22.10;;;5.40;;
77955;SDS011;67152;36.266;32.294;2023-10-13T06:48:54;20.17;;;5.13;;
77955;SDS011;67152;36.266;32.294;2023-10-13T06:51:21;13.77;;;4.70;;
77955;SDS011;67152;36.266;32.294;2023-10-13T06:53:48;19.17;;;5.20;;
77955;SDS011;67152;36.266;32.294;2023-10-13T06:56:15;21.67;;;5.30;;
77955;SDS011;67152;36.266;32.294;2023-10-13T06:58:53;22.60;;;5.43;;
77955;SDS011;67152;36.266;32.294;2023-10-13T07:01:30;11.35;;;4.90;;
77955;SDS011;67152;36.266;32.294;2023-10-13T07:04:05;14.23;;;5.20;;
77955;SDS011;67152;36.266;32.294;2023-10-13T07:06:41;10.90;;;4.60;;
77955;SDS011;67152;36.266;32.294;2023-10-13T07:09:10;15.52;;;4.47;;
77955;SDS011;67152;36.266;32.294;2023-10-13T07:11:53;129.38;;;11.18;;
77955;SDS011;67152;36.266;32.294;2023-10-13T07:14:20;17.83;;;5.22;;
77955;SDS011;67152;36.266;32.294;2023-10-13T07:17:00;13.93;;;4.88;;
77955;SDS011;67152;36.266;32.294;2023-10-13T07:19:29;21.38;;;5.10;;
77955;SDS011;67152;36.266;32.294;2023-10-13T07:21:58;25.70;;;5.85;;
77955;SDS011;67152;36.266;32.294;2023-10-13T07:24:45;10.23;;;4.43;;
77955;SDS011;67152;36.266;32.294;2023-10-13T07:29:49;15.48;;;5.20;;
77955;SDS011;67152;36.266;32.294;2023-10-13T07:32:23;20.58;;;4.63;;
77955;SDS011;67152;36.266;32.294;2023-10-13T07:34:53;15.07;;;5.32;;
77955;SDS011;67152;36.266;32.294;2023-10-13T07:37:23;12.77;;;5.20;;
77955;SDS011;67152;36.266;32.294;2023-10-13T07:39:55;12.07;;;5.05;;
77955;SDS011;67152;36.266;32.294;2023-10-13T07:42:26;11.38;;;5.40;;
77955;SDS011;67152;36.266;32.294;2023-10-13T07:45:13;15.52;;;5.32;;
77955;SDS011;67152;36.266;32.294;2023-10-13T07:47:43;12.68;;;4.93;;
77955;SDS011;67152;36.266;32.294;2023-10-13T07:50:12;13.73;;;5.05;;
77955;SDS011;67152;36.266;32.294;2023-10-13T07:52:38;13.13;;;5.43;;
77955;SDS011;67152;36.266;32.294;2023-10-13T07:55:24;9.07;;;5.20;;
77955;SDS011;67152;36.266;32.294;2023-10-13T07:57:51;11.73;;;5.38;;
77955;SDS011;67152;36.266;32.294;2023-10-13T08:00:21;45.92;;;6.13;;
77955;SDS011;67152;36.266;32.294;2023-10-13T08:03:03;10.60;;;4.53;;
77955;SDS011;67152;36.266;32.294;2023-10-13T08:05:42;14.57;;;4.95;;
77955;SDS011;67152;36.266;32.294;2023-10-13T08:08:31;9.02;;;5.15;;
77955;SDS011;67152;36.266;32.294;2023-10-13T08:11:06;17.98;;;4.82;;
77955;SDS011;67152;36.266;32.294;2023-10-13T08:16:20;17.73;;;5.28;;
77955;SDS011;67152;36.266;32.294;2023-10-13T08:18:49;10.43;;;5.03;;
77955;SDS011;67152;36.266;32.294;2023-10-13T08:21:16;14.85;;;5.35;;
77955;SDS011;67152;36.266;32.294;2023-10-13T08:23:51;22.50;;;5.47;;
77955;SDS011;67152;36.266;32.294;2023-10-13T08:26:23;20.55;;;5.47;;
77955;SDS011;67152;36.266;32.294;2023-10-13T08:29:03;11.98;;;5.40;;
77955;SDS011;67152;36.266;32.294;2023-10-13T08:31:48;17.73;;;5.85;;
77955;SDS011;67152;36.266;32.294;2023-10-13T08:34:36;18.55;;;6.03;;
77955;SDS011;67152;36.266;32.294;2023-10-13T08:37:09;31.40;;;6.88;;
77955;SDS011;67152;36.266;32.294;2023-10-13T08:39:49;14.65;;;5.90;;
77955;SDS011;67152;36.266;32.294;2023-10-13T08:42:36;87.53;;;9.50;;
77955;SDS011;67152;36.266;32.294;2023-10-13T08:45:06;16.27;;;5.80;;
77955;SDS011;67152;36.266;32.294;2023-10-13T08:47:49;15.05;;;5.82;;
77955;SDS011;67152;36.266;32.294;2023-10-13T08:50:35;11.75;;;5.63;;
77955;SDS011;67152;36.266;32.294;2023-10-13T08:53:18;14.20;;;5.95;;
77955;SDS011;67152;36.266;32.294;2023-10-13T08:58:31;11.40;;;5.53;;
77955;SDS011;67152;36.266;32.294;2023-10-13T09:01:16;14.98;;;5.80;;
77955;SDS011;67152;36.266;32.294;2023-10-13T09:12:12;13.38;;;5.72;;
77955;SDS011;67152;36.266;32.294;2023-10-13T09:14:41;14.07;;;5.75;;
77955;SDS011;67152;36.266;32.294;2023-10-13T09:17:10;13.30;;;5.70;;
77955;SDS011;67152;36.266;32.294;2023-10-13T09:19:56;53.78;;;7.22;;
77955;SDS011;67152;36.266;32.294;2023-10-13T09:22:26;13.90;;;5.53;;
77955;SDS011;67152;36.266;32.294;2023-10-13T09:25:04;12.90;;;5.78;;
77955;SDS011;67152;36.266;32.294;2023-10-13T09:27:31;10.48;;;5.00;;
77955;SDS011;67152;36.266;32.294;2023-10-13T09:29:59;18.05;;;5.97;;
77955;SDS011;67152;36.266;32.294;2023-10-13T09:32:44;17.73;;;5.45;;
77955;SDS011;67152;36.266;32.294;2023-10-13T09:35:20;12.82;;;5.93;;
77955;SDS011;67152;36.266;32.294;2023-10-13T09:37:53;10.55;;;5.55;;
77955;SDS011;67152;36.266;32.294;2023-10-13T09:40:22;13.50;;;5.95;;
77955;SDS011;67152;36.266;32.294;2023-10-13T09:42:59;10.93;;;5.57;;
77955;SDS011;67152;36.266;32.294;2023-10-13T09:45:33;13.07;;;5.68;;
77955;SDS011;67152;36.266;32.294;2023-10-13T09:48:10;12.68;;;5.93;;
77955;SDS011;67152;36.266;32.294;2023-10-13T09:50:45;10.27;;;5.82;;
77955;SDS011;67152;36.266;32.294;2023-10-13T09:53:17;9.57;;;5.50;;
77955;SDS011;67152;36.266;32.294;2023-10-13T09:55:46;12.10;;;5.53;;
77955;SDS011;67152;36.266;32.294;2023-10-13T09:58:15;10.55;;;5.50;;
77955;SDS011;67152;36.266;32.294;2023-10-13T10:00:48;12.85;;;5.32;;
77955;SDS011;67152;36.266;32.294;2023-10-13T10:03:45;13.52;;;6.15;;
77955;SDS011;67152;36.266;32.294;2023-10-13T10:06:33;18.25;;;6.05;;
77955;SDS011;67152;36.266;32.294;2023-10-13T10:14:24;13.77;;;5.70;;
77955;SDS011;67152;36.266;32.294;2023-10-13T10:17:05;16.88;;;6.05;;
77955;SDS011;67152;36.266;32.294;2023-10-13T10:19:48;13.57;;;5.78;;
77955;SDS011;67152;36.266;32.294;2023-10-13T10:22:25;24.23;;;6.30;;
77955;SDS011;67152;36.266;32.294;2023-10-13T10:24:59;14.13;;;6.10;;
77955;SDS011;67152;36.266;32.294;2023-10-13T10:27:29;15.00;;;6.95;;
77955;SDS011;67152;36.266;32.294;2023-10-13T10:29:57;38.90;;;7.10;;
77955;SDS011;67152;36.266;32.294;2023-10-13T10:32:34;15.88;;;7.05;;
77955;SDS011;67152;36.266;32.294;2023-10-13T10:35:05;19.45;;;6.82;;
77955;SDS011;67152;36.266;32.294;2023-10-13T10:37:46;18.58;;;6.35;;
77955;SDS011;67152;36.266;32.294;2023-10-13T10:40:14;16.50;;;6.82;;
77955;SDS011;67152;36.266;32.294;2023-10-13T10:43:13;12.30;;;6.72;;
77955;SDS011;67152;36.266;32.294;2023-10-13T10:45:47;15.15;;;6.78;;
77955;SDS011;67152;36.266;32.294;2023-10-13T10:48:37;14.48;;;5.88;;
77955;SDS011;67152;36.266;32.294;2023-10-13T10:51:11;12.50;;;6.30;;
77955;SDS011;67152;36.266;32.294;2023-10-13T10:53:41;10.70;;;6.43;;
77955;SDS011;67152;36.266;32.294;2023-10-13T10:56:11;11.45;;;6.40;;
77955;SDS011;67152;36.266;32.294;2023-10-13T10:58:55;12.10;;;6.28;;
77955;SDS011;67152;36.266;32.294;2023-10-13T11:01:26;17.75;;;6.65;;
77955;SDS011;67152;36.266;32.294;2023-10-13T11:04:00;16.00;;;6.75;;
77955;SDS011;67152;36.266;32.294;2023-10-13T11:06:46;14.95;;;6.53;;
77955;SDS011;67152;36.266;32.294;2023-10-13T11:09:29;26.27;;;7.10;;
77955;SDS011;67152;36.266;32.294;2023-10-13T11:12:08;19.15;;;6.65;;
77955;SDS011;67152;36.266;32.294;2023-10-13T11:15:02;18.42;;;6.80;;
77955;SDS011;67152;36.266;32.294;2023-10-13T11:17:35;12.45;;;6.60;;
77955;SDS011;67152;36.266;32.294;2023-10-13T11:20:09;24.65;;;7.57;;
77955;SDS011;67152;36.266;32.294;2023-10-13T11:22:49;13.60;;;6.65;;
77955;SDS011;67152;36.266;32.294;2023-10-13T11:25:22;18.50;;;6.18;;
77955;SDS011;67152;36.266;32.294;2023-10-13T11:27:56;21.25;;;6.20;;
77955;SDS011;67152;36.266;32.294;2023-10-13T11:30:26;15.15;;;6.70;;
77955;SDS011;67152;36.266;32.294;2023-10-13T11:33:10;12.07;;;6.75;;
77955;SDS011;67152;36.266;32.294;2023-10-13T11:35:40;14.55;;;6.13;;
77955;SDS011;67152;36.266;32.294;2023-10-13T11:38:19;15.23;;;6.05;;
77955;SDS011;67152;36.266;32.294;2023-10-13T11:40:58;16.33;;;6.63;;
77955;SDS011;67152;36.266;32.294;2023-10-13T11:43:34;13.75;;;6.80;;
77955;SDS011;67152;36.266;32.294;2023-10-13T11:46:22;12.30;;;6.43;;
77955;SDS011;67152;36.266;32.294;2023-10-13T11:49:01;14.25;;;6.13;;
77955;SDS011;67152;36.266;32.294;2023-10-13T11:51:43;20.98;;;6.85;;
77955;SDS011;67152;36.266;32.294;2023-10-13T11:54:17;14.90;;;7.53;;
77955;SDS011;67152;36.266;32.294;2023-10-13T11:56:45;16.90;;;7.18;;
77955;SDS011;67152;36.266;32.294;2023-10-13T11:59:12;16.88;;;6.75;;
77955;SDS011;67152;36.266;32.294;2023-10-13T12:01:48;15.32;;;7.00;;
77955;SDS011;67152;36.266;32.294;2023-10-13T12:04:33;17.15;;;6.38;;
77955;SDS011;67152;36.266;32.294;2023-10-13T12:07:09;15.40;;;6.75;;
77955;SDS011;67152;36.266;32.294;2023-10-13T12:09:54;14.65;;;6.68;;
77955;SDS011;67152;36.266;32.294;2023-10-13T12:12:24;15.13;;;6.45;;
77955;SDS011;67152;36.266;32.294;2023-10-13T12:14:54;17.10;;;7.43;;
77955;SDS011;67152;36.266;32.294;2023-10-13T12:17:22;14.40;;;6.75;;
77955;SDS011;67152;36.266;32.294;2023-10-13T12:20:02;8.77;;;5.95;;
77955;SDS011;67152;36.266;32.294;2023-10-13T12:22:39;16.85;;;6.82;;
77955;SDS011;67152;36.266;32.294;2023-10-13T12:25:08;13.65;;;6.60;;
77955;SDS011;67152;36.266;32.294;2023-10-13T12:27:54;10.57;;;6.55;;
77955;SDS011;67152;36.266;32.294;2023-10-13T12:30:24;16.30;;;6.80;;
77955;SDS011;67152;36.266;32.294;2023-10-13T12:33:15;13.45;;;6.65;;
77955;SDS011;67152;36.266;32.294;2023-10-13T12:35:56;10.55;;;6.35;;
77955;SDS011;67152;36.266;32.294;2023-10-13T12:38:33;16.45;;;6.40;;
77955;SDS011;67152;36.266;32.294;2023-10-13T12:41:05;13.02;;;6.28;;
77955;SDS011;67152;36.266;32.294;2023-10-13T12:43:50;11.10;;;5.97;;
77955;SDS011;67152;36.266;32.294;2023-10-13T12:46:35;12.27;;;6.40;;
77955;SDS011;67152;36.266;32.294;2023-10-13T12:49:20;16.23;;;6.10;;
77955;SDS011;67152;36.266;32.294;2023-10-13T12:52:05;15.15;;;6.22;;
77955;SDS011;67152;36.266;32.294;2023-10-13T12:57:15;18.83;;;6.90;;
77955;SDS011;67152;36.266;32.294;2023-10-13T12:59:42;11.43;;;6.45;;
77955;SDS011;67152;36.266;32.294;2023-10-13T13:02:09;17.95;;;6.80;;
77955;SDS011;67152;36.266;32.294;2023-10-13T13:04:41;13.00;;;6.95;;
77955;SDS011;67152;36.266;32.294;2023-10-13T13:07:10;15.57;;;7.22;;
77955;SDS011;67152;36.266;32.294;2023-10-13T13:09:40;12.43;;;6.30;;
77955;SDS011;67152;36.266;32.294;2023-10-13T13:12:07;10.98;;;6.22;;
77955;SDS011;67152;36.266;32.294;2023-10-13T13:14:33;18.27;;;7.25;;
77955;SDS011;67152;36.266;32.294;2023-10-13T13:17:00;12.18;;;6.47;;
77955;SDS011;67152;36.266;32.294;2023-10-13T13:19:36;10.40;;;6.78;;
77955;SDS011;67152;36.266;32.294;2023-10-13T13:22:06;16.65;;;7.50;;
77955;SDS011;67152;36.266;32.294;2023-10-13T13:24:41;12.77;;;6.90;;
77955;SDS011;67152;36.266;32.294;2023-10-13T13:27:11;10.30;;;6.72;;
77955;SDS011;67152;36.266;32.294;2023-10-13T13:29:45;43.22;;;7.28;;
77955;SDS011;67152;36.266;32.294;2023-10-13T13:32:12;15.88;;;6.60;;
77955;SDS011;67152;36.266;32.294;2023-10-13T13:34:50;33.58;;;7.22;;
77955;SDS011;67152;36.266;32.294;2023-10-13T13:37:34;45.67;;;7.85;;
77955;SDS011;67152;36.266;32.294;2023-10-13T13:40:06;14.63;;;7.38;;
77955;SDS011;67152;36.266;32.294;2023-10-13T13:42:42;16.48;;;7.97;;
77955;SDS011;67152;36.266;32.294;2023-10-13T13:45:12;22.23;;;7.40;;
77955;SDS011;67152;36.266;32.294;2023-10-13T13:47:53;10.43;;;6.65;;
77955;SDS011;67152;36.266;32.294;2023-10-13T13:50:20;11.75;;;7.30;;
77955;SDS011;67152;36.266;32.294;2023-10-13T13:52:56;17.92;;;7.50;;
77955;SDS011;67152;36.266;32.294;2023-10-13T13:55:23;20.58;;;7.40;;
77955;SDS011;67152;36.266;32.294;2023-10-13T13:57:50;12.85;;;7.32;;
77955;SDS011;67152;36.266;32.294;2023-10-13T14:00:17;21.33;;;7.88;;
77955;SDS011;67152;36.266;32.294;2023-10-13T14:03:05;15.60;;;7.30;;
77955;SDS011;67152;36.266;32.294;2023-10-13T14:05:44;20.23;;;7.28;;
77955;SDS011;67152;36.266;32.294;2023-10-13T14:08:11;11.93;;;6.32;;
77955;SDS011;67152;36.266;32.294;2023-10-13T14:10:38;12.60;;;6.65;;
77955;SDS011;67152;36.266;32.294;2023-10-13T14:13:23;12.88;;;6.63;;
77955;SDS011;67152;36.266;32.294;2023-10-13T14:18:43;13.80;;;6.97;;
77955;SDS011;67152;36.266;32.294;2023-10-13T14:21:13;19.63;;;7.22;;
77955;SDS011;67152;36.266;32.294;2023-10-13T14:23:43;17.05;;;7.53;;
77955;SDS011;67152;36.266;32.294;2023-10-13T14:26:15;10.88;;;6.90;;
77955;SDS011;67152;36.266;32.294;2023-10-13T14:28:51;13.73;;;7.45;;
77955;SDS011;67152;36.266;32.294;2023-10-13T14:31:27;12.40;;;7.30;;
77955;SDS011;67152;36.266;32.294;2023-10-13T14:36:41;11.23;;;6.95;;
77955;SDS011;67152;36.266;32.294;2023-10-13T14:39:14;17.15;;;7.35;;
77955;SDS011;67152;36.266;32.294;2023-10-13T14:41:40;15.05;;;7.25;;
77955;SDS011;67152;36.266;32.294;2023-10-13T14:44:07;20.40;;;7.90;;
77955;SDS011;67152;36.266;32.294;2023-10-13T14:46:34;14.68;;;7.57;;
77955;SDS011;67152;36.266;32.294;2023-10-13T14:49:02;15.23;;;6.93;;
77955;SDS011;67152;36.266;32.294;2023-10-13T14:51:28;15.98;;;7.97;;
77955;SDS011;67152;36.266;32.294;2023-10-13T14:53:55;12.15;;;6.60;;
77955;SDS011;67152;36.266;32.294;2023-10-13T14:56:22;21.23;;;9.70;;
77955;SDS011;67152;36.266;32.294;2023-10-13T14:58:52;15.93;;;7.60;;
77955;SDS011;67152;36.266;32.294;2023-10-13T15:01:20;19.33;;;7.70;;
77955;SDS011;67152;36.266;32.294;2023-10-13T15:03:49;17.42;;;6.88;;
77955;SDS011;67152;36.266;32.294;2023-10-13T15:08:46;28.10;;;8.05;;
77955;SDS011;67152;36.266;32.294;2023-10-13T15:11:14;16.40;;;7.28;;
77955;SDS011;67152;36.266;32.294;2023-10-13T15:13:41;19.73;;;7.63;;
77955;SDS011;67152;36.266;32.294;2023-10-13T15:16:14;23.10;;;7.90;;
77955;SDS011;67152;36.266;32.294;2023-10-13T15:18:49;16.65;;;7.60;;
77955;SDS011;67152;36.266;32.294;2023-10-13T15:23:52;21.05;;;7.22;;
77955;SDS011;67152;36.266;32.294;2023-10-13T15:26:21;17.60;;;7.25;;
77955;SDS011;67152;36.266;32.294;2023-10-13T15:28:49;17.38;;;7.53;;
77955;SDS011;67152;36.266;32.294;2023-10-13T15:31:20;14.30;;;7.55;;
77955;SDS011;67152;36.266;32.294;2023-10-13T15:34:13;17.15;;;7.45;;
77955;SDS011;67152;36.266;32.294;2023-10-13T15:36:41;24.30;;;7.65;;
77955;SDS011;67152;36.266;32.294;2023-10-13T15:39:10;24.25;;;7.40;;
77955;SDS011;67152;36.266;32.294;2023-10-13T15:41:37;16.48;;;7.13;;
77955;SDS011;67152;36.266;32.294;2023-10-13T15:44:04;13.32;;;7.18;;
77955;SDS011;67152;36.266;32.294;2023-10-13T15:46:35;13.63;;;7.57;;
77955;SDS011;67152;36.266;32.294;2023-10-13T15:49:03;16.60;;;7.38;;
77955;SDS011;67152;36.266;32.294;2023-10-13T15:51:32;15.73;;;7.35;;
77955;SDS011;67152;36.266;32.294;2023-10-13T15:54:02;15.00;;;7.68;;
77955;SDS011;67152;36.266;32.294;2023-10-13T15:56:30;13.57;;;7.40;;
77955;SDS011;67152;36.266;32.294;2023-10-13T15:58:58;13.48;;;7.30;;